createdAt,value
2023-07-11T00:01:16.896Z,7.03
2023-07-11T00:03:44.287Z,6.70
2023-07-11T00:06:21.905Z,7.70
2023-07-11T00:08:49.090Z,7.10
2023-07-11T00:11:19.434Z,6.73
2023-07-11T00:13:47.579Z,6.27
2023-07-11T00:16:16.114Z,6.30
2023-07-11T00:18:43.915Z,6.70
2023-07-11T00:21:11.627Z,6.80
2023-07-11T00:23:39.780Z,6.63
2023-07-11T00:26:07.229Z,6.63
2023-07-11T00:28:34.641Z,7.03
2023-07-11T00:31:03.137Z,7.17
2023-07-11T00:33:30.371Z,7.03
2023-07-11T00:35:57.515Z,6.67
2023-07-11T00:38:26.065Z,6.70
2023-07-11T00:40:53.218Z,6.67
2023-07-11T00:43:22.952Z,6.47
2023-07-11T00:46:18.594Z,6.40
2023-07-11T00:49:01.168Z,7.43
2023-07-11T00:51:38.660Z,6.90
2023-07-11T00:54:13.331Z,7.23
2023-07-11T00:56:46.185Z,7.03
2023-07-11T00:59:17.092Z,7.30
2023-07-11T01:01:51.345Z,7.93
2023-07-11T01:04:20.643Z,7.30
2023-07-11T01:06:50.832Z,7.60
2023-07-11T01:09:17.934Z,7.57
2023-07-11T01:12:02.402Z,7.87
2023-07-11T01:14:30.043Z,7.70
2023-07-11T01:16:57.440Z,8.37
2023-07-11T01:19:25.907Z,8.13
2023-07-11T01:21:53.608Z,8.73
2023-07-11T01:24:20.812Z,9.33
2023-07-11T01:26:47.928Z,8.60
2023-07-11T01:29:15.022Z,8.57
2023-07-11T01:31:42.147Z,8.10
2023-07-11T01:34:11.115Z,7.93
2023-07-11T01:36:38.350Z,7.83
2023-07-11T01:39:07.845Z,8.47
2023-07-11T01:41:35.709Z,9.57
2023-07-11T01:44:04.327Z,8.00
2023-07-11T01:46:31.490Z,7.40
2023-07-11T01:48:58.621Z,7.97
2023-07-11T01:51:25.695Z,7.83
2023-07-11T01:53:52.807Z,8.00
2023-07-11T01:56:21.310Z,7.63
2023-07-11T01:58:48.448Z,7.90
2023-07-11T02:01:16.031Z,8.00
2023-07-11T02:03:43.200Z,7.23
2023-07-11T02:06:10.405Z,8.10
2023-07-11T02:08:39.812Z,8.33
2023-07-11T02:11:07.031Z,8.33
2023-07-11T02:13:34.411Z,8.20
2023-07-11T02:16:01.663Z,7.40
2023-07-11T02:18:28.915Z,7.30
2023-07-11T02:20:58.007Z,8.03
2023-07-11T02:23:25.336Z,8.13
2023-07-11T02:25:54.922Z,7.73
2023-07-11T02:28:23.288Z,7.63
2023-07-11T02:30:50.463Z,7.43
2023-07-11T02:33:17.664Z,7.60
2023-07-11T02:35:44.767Z,6.83
2023-07-11T02:38:11.870Z,6.90
2023-07-11T02:40:38.949Z,6.67
2023-07-11T02:43:06.098Z,7.90
2023-07-11T02:45:33.254Z,7.90
2023-07-11T02:48:00.533Z,7.37
2023-07-11T02:50:27.679Z,7.80
2023-07-11T02:52:54.830Z,8.00
2023-07-11T02:55:22.049Z,8.90
2023-07-11T02:57:49.181Z,8.60
2023-07-11T03:00:16.440Z,8.37
2023-07-11T03:02:43.692Z,7.93
2023-07-11T03:05:11.337Z,7.93
2023-07-11T03:07:38.534Z,8.47
2023-07-11T03:10:07.472Z,9.27
2023-07-11T03:12:34.633Z,9.07
2023-07-11T03:15:04.394Z,8.43
2023-07-11T03:17:32.954Z,9.43
2023-07-11T03:20:00.279Z,10.47
2023-07-11T03:22:29.628Z,10.93
2023-07-11T03:24:56.819Z,9.17
2023-07-11T03:27:24.041Z,9.30
2023-07-11T03:29:51.573Z,8.73
2023-07-11T03:32:18.689Z,10.23
2023-07-11T03:34:53.830Z,10.77
2023-07-11T03:37:25.748Z,9.90
2023-07-11T03:39:53.440Z,10.33
2023-07-11T03:42:20.947Z,9.40
2023-07-11T03:44:49.444Z,8.77
2023-07-11T03:47:16.620Z,10.90
2023-07-11T03:49:43.755Z,11.90
2023-07-11T03:52:10.843Z,10.50
2023-07-11T03:54:38.088Z,9.43
2023-07-11T03:57:05.776Z,8.40
2023-07-11T03:59:33.001Z,8.73
2023-07-11T04:02:00.558Z,9.13
2023-07-11T04:04:27.740Z,8.57
2023-07-11T04:06:54.871Z,9.53
2023-07-11T04:09:22.014Z,9.40
2023-07-11T04:11:51.396Z,9.40
2023-07-11T04:14:19.244Z,9.03
2023-07-11T04:16:46.541Z,9.20
2023-07-11T04:19:13.850Z,8.57
2023-07-11T04:21:41.093Z,8.33
2023-07-11T04:24:08.294Z,8.33
2023-07-11T04:26:35.423Z,7.83
2023-07-11T04:29:03.023Z,7.47
2023-07-11T04:31:30.166Z,7.90
2023-07-11T04:33:57.330Z,8.20
2023-07-11T04:36:25.841Z,8.77
2023-07-11T04:38:54.206Z,7.85
2023-07-11T04:41:21.682Z,7.67
2023-07-11T04:43:49.255Z,7.63
2023-07-11T04:46:16.447Z,6.63
2023-07-11T04:48:45.288Z,7.80
2023-07-11T04:51:12.716Z,7.70
2023-07-11T04:53:42.979Z,7.67
2023-07-11T04:56:12.268Z,7.25
2023-07-11T04:58:40.127Z,7.28
2023-07-11T05:01:12.701Z,7.35
2023-07-11T05:03:40.837Z,7.68
2023-07-11T05:06:10.038Z,7.10
2023-07-11T05:08:37.785Z,7.50
2023-07-11T05:11:17.644Z,7.05
2023-07-11T05:13:48.557Z,6.80
2023-07-11T05:16:22.344Z,6.03
2023-07-11T05:18:50.595Z,5.70
2023-07-11T05:21:20.483Z,4.80
2023-07-11T05:23:48.399Z,4.38
2023-07-11T05:26:17.245Z,4.63
2023-07-11T05:28:46.073Z,3.58
2023-07-11T05:31:14.520Z,3.50
2023-07-11T05:33:41.905Z,3.30
2023-07-11T05:36:32.865Z,2.88
2023-07-11T05:39:12.876Z,2.92
2023-07-11T05:41:49.588Z,2.40
2023-07-11T05:44:17.681Z,2.75
2023-07-11T05:46:47.773Z,2.53
2023-07-11T05:49:16.405Z,1.88
2023-07-11T05:51:43.871Z,2.05
2023-07-11T05:54:11.186Z,2.10
2023-07-11T05:56:38.469Z,2.53
2023-07-11T05:59:05.593Z,2.22
2023-07-11T06:01:33.678Z,2.60
2023-07-11T06:04:14.634Z,2.83
2023-07-11T06:06:43.553Z,2.50
2023-07-11T06:09:21.635Z,2.50
2023-07-11T06:11:50.870Z,2.38
2023-07-11T06:14:21.875Z,2.20
2023-07-11T06:16:51.538Z,2.50
2023-07-11T06:19:21.926Z,2.17
2023-07-11T06:21:49.037Z,2.05
2023-07-11T06:24:16.204Z,1.77
2023-07-11T06:26:43.481Z,1.83
2023-07-11T06:29:10.594Z,2.28
2023-07-11T06:31:37.842Z,2.35
2023-07-11T06:34:05.482Z,2.50
2023-07-11T06:36:32.731Z,2.83
2023-07-11T06:38:59.924Z,3.13
2023-07-11T06:41:29.540Z,2.35
2023-07-11T06:43:57.449Z,2.75
2023-07-11T06:46:24.680Z,2.50
2023-07-11T06:48:51.897Z,2.92
2023-07-11T06:51:19.013Z,2.25
2023-07-11T06:53:46.273Z,2.33
2023-07-11T06:56:13.719Z,1.77
2023-07-11T06:58:40.899Z,1.80
2023-07-11T07:01:13.765Z,2.15
2023-07-11T07:03:44.046Z,2.53
2023-07-11T07:06:14.444Z,2.33
2023-07-11T07:08:42.398Z,2.38
2023-07-11T07:11:11.363Z,2.42
2023-07-11T07:13:43.731Z,1.98
2023-07-11T07:16:16.204Z,1.90
2023-07-11T07:18:44.507Z,1.90
2023-07-11T07:21:11.823Z,1.70
2023-07-11T07:23:39.179Z,2.60
2023-07-11T07:26:07.132Z,2.13
2023-07-11T07:28:35.861Z,2.25
2023-07-11T07:31:07.664Z,2.35
2023-07-11T07:33:35.740Z,2.40
2023-07-11T07:36:07.952Z,1.95
2023-07-11T07:38:35.755Z,1.40
2023-07-11T07:41:07.824Z,1.85
2023-07-11T07:43:37.450Z,1.67
2023-07-11T07:46:07.658Z,1.35
2023-07-11T07:48:35.740Z,1.42
2023-07-11T07:51:08.672Z,1.67
2023-07-11T07:53:36.400Z,1.75
2023-07-11T07:56:09.923Z,1.73
2023-07-11T07:58:43.306Z,1.67
2023-07-11T08:01:14.417Z,1.42
2023-07-11T08:03:42.499Z,1.80
2023-07-11T08:08:42.562Z,1.60
2023-07-11T08:11:10.711Z,1.85
2023-07-11T08:13:57.032Z,1.40
2023-07-11T08:18:55.559Z,1.40
2023-07-11T08:21:23.533Z,1.20
2023-07-11T08:23:51.007Z,1.08
2023-07-11T08:26:18.345Z,1.20
2023-07-11T08:28:45.527Z,1.52
2023-07-11T08:31:16.037Z,1.08
2023-07-11T08:33:44.518Z,1.20
2023-07-11T08:36:11.633Z,1.15
2023-07-11T08:38:38.752Z,1.20
2023-07-11T08:41:53.560Z,1.00
2023-07-11T08:44:50.685Z,1.00
2023-07-11T08:47:30.129Z,1.30
2023-07-11T08:50:24.951Z,1.15
2023-07-11T08:53:10.580Z,1.38
2023-07-11T08:55:48.582Z,1.15
2023-07-11T08:58:33.493Z,1.60
2023-07-11T09:01:13.129Z,1.55
2023-07-11T09:03:48.324Z,1.80
2023-07-11T09:06:53.830Z,1.27
2023-07-11T09:09:21.339Z,1.15
2023-07-11T09:11:58.381Z,1.20
2023-07-11T09:15:14.461Z,1.33
2023-07-11T09:18:57.901Z,1.70
2023-07-11T09:22:05.451Z,1.17
2023-07-11T09:25:40.439Z,1.17
2023-07-11T09:28:21.418Z,1.13
2023-07-11T09:31:02.131Z,1.23
2023-07-11T09:33:33.597Z,1.48
2023-07-11T09:36:04.920Z,1.30
2023-07-11T09:38:45.882Z,1.70
2023-07-11T09:41:50.219Z,1.20
2023-07-11T09:44:18.261Z,1.13
2023-07-11T09:46:45.485Z,1.35
2023-07-11T09:49:25.431Z,1.33
2023-07-11T09:51:59.459Z,1.00
2023-07-11T09:54:55.248Z,1.20
2023-07-11T09:57:26.733Z,1.10
2023-07-11T10:00:20.890Z,1.33
2023-07-11T10:02:50.836Z,1.70
2023-07-11T10:05:24.877Z,1.17
2023-07-11T10:08:14.558Z,1.05
2023-07-11T10:11:03.006Z,1.15
2023-07-11T10:13:44.059Z,0.95
2023-07-11T10:16:21.591Z,1.10
2023-07-11T10:18:48.957Z,1.77
2023-07-11T10:21:31.984Z,1.30
2023-07-11T10:24:24.876Z,1.30
2023-07-11T10:27:07.134Z,1.60
2023-07-11T10:29:50.587Z,0.80
2023-07-11T10:33:23.395Z,1.00
2023-07-11T10:36:22.743Z,1.13
2023-07-11T10:39:19.459Z,1.02
2023-07-11T10:42:30.058Z,0.90
2023-07-11T10:45:24.409Z,1.08
2023-07-11T10:48:31.635Z,1.08
2023-07-11T10:51:20.835Z,1.15
2023-07-11T10:54:23.928Z,1.10
2023-07-11T10:57:09.320Z,1.35
2023-07-11T10:59:36.721Z,1.00
2023-07-11T11:02:16.097Z,1.10
2023-07-11T11:05:21.843Z,1.27
2023-07-11T11:08:11.231Z,1.00
2023-07-11T11:11:15.912Z,0.90
2023-07-11T11:14:05.891Z,1.30
2023-07-11T11:17:32.556Z,1.20
2023-07-11T11:20:26.414Z,1.00
2023-07-11T11:23:45.598Z,1.27
2023-07-11T11:27:11.646Z,1.00
2023-07-11T11:31:08.625Z,1.20
2023-07-11T11:34:07.549Z,0.95
2023-07-11T11:37:39.321Z,1.00
2023-07-11T11:40:24.965Z,1.40
2023-07-11T11:43:18.214Z,1.00
2023-07-11T11:51:12.928Z,1.60
2023-07-11T11:54:02.454Z,1.30
2023-07-11T11:56:29.851Z,1.15
2023-07-11T11:59:26.156Z,1.48
2023-07-11T12:01:59.460Z,1.30
2023-07-11T12:04:33.761Z,1.17
2023-07-11T12:07:07.608Z,1.50
2023-07-11T12:09:34.471Z,1.02
2023-07-11T12:12:13.113Z,1.25
2023-07-11T12:14:53.644Z,1.20
2023-07-11T12:17:40.918Z,1.52
2023-07-11T12:20:08.031Z,1.40
2023-07-11T12:22:38.078Z,1.23
2023-07-11T12:25:08.283Z,1.48
2023-07-11T12:27:35.451Z,1.77
2023-07-11T12:30:28.335Z,1.67
2023-07-11T12:32:57.881Z,1.88
2023-07-11T12:35:35.320Z,1.52
2023-07-11T12:38:14.226Z,1.42
2023-07-11T12:41:31.192Z,1.70
2023-07-11T12:44:14.431Z,1.65
2023-07-11T12:46:46.187Z,1.63
2023-07-11T12:49:29.714Z,1.70
2023-07-11T12:52:18.992Z,1.70
2023-07-11T12:54:48.502Z,1.80
2023-07-11T12:57:24.440Z,1.40
2023-07-11T12:59:52.165Z,1.85
2023-07-11T13:02:30.523Z,1.83
2023-07-11T13:04:59.741Z,1.98
2023-07-11T13:07:33.730Z,1.52
2023-07-11T13:10:03.059Z,1.80
2023-07-11T13:12:38.816Z,1.67
2023-07-11T13:15:20.776Z,1.80
2023-07-11T13:17:54.016Z,1.80
2023-07-11T13:20:31.833Z,1.63
2023-07-11T13:22:59.272Z,1.77
2023-07-11T13:25:36.673Z,1.90
2023-07-11T13:28:15.637Z,1.92
2023-07-11T13:30:42.779Z,2.00
2023-07-11T13:38:53.713Z,2.20
2023-07-11T13:41:30.041Z,1.92
2023-07-11T13:44:22.656Z,2.28
2023-07-11T13:46:51.050Z,1.90
2023-07-11T13:49:44.707Z,1.90
2023-07-11T13:52:55.855Z,1.90
2023-07-11T13:55:27.701Z,1.88
2023-07-11T13:57:56.242Z,1.95
2023-07-11T14:00:24.928Z,2.20
2023-07-11T14:02:54.009Z,1.90
2023-07-11T14:05:32.070Z,2.10
2023-07-11T14:08:04.261Z,2.13
2023-07-11T14:10:31.884Z,2.22
2023-07-11T14:13:00.198Z,2.08
2023-07-11T14:15:29.802Z,2.45
2023-07-11T14:18:00.637Z,1.95
2023-07-11T14:20:29.244Z,2.03
2023-07-11T14:22:56.764Z,2.20
2023-07-11T14:25:31.996Z,2.17
2023-07-11T14:27:59.324Z,2.42
2023-07-11T14:30:29.092Z,2.60
2023-07-11T14:32:56.354Z,2.03
2023-07-11T14:35:28.070Z,2.00
2023-07-11T14:37:56.340Z,2.75
2023-07-11T14:40:29.994Z,2.33
2023-07-11T14:42:57.230Z,2.42
2023-07-11T14:45:27.355Z,2.67
2023-07-11T14:47:55.201Z,2.75
2023-07-11T14:50:29.886Z,2.50
2023-07-11T14:53:04.858Z,2.53
2023-07-11T14:58:02.420Z,2.75
2023-07-11T15:00:30.442Z,2.47
2023-07-11T15:02:58.083Z,2.58
2023-07-11T15:10:31.236Z,2.60
2023-07-11T15:15:34.471Z,2.78
2023-07-11T15:18:02.633Z,2.60
2023-07-11T15:20:29.844Z,2.30
2023-07-11T15:23:00.003Z,2.90
2023-07-11T15:25:36.561Z,3.28
2023-07-11T15:28:24.189Z,2.45
2023-07-11T15:30:58.996Z,2.90
2023-07-11T15:33:52.823Z,3.20
2023-07-11T15:36:19.931Z,3.17
2023-07-11T15:38:46.990Z,2.88
2023-07-11T15:41:18.293Z,3.20
2023-07-11T15:43:45.899Z,3.42
2023-07-11T15:46:22.329Z,3.30
2023-07-11T15:48:51.508Z,3.30
2023-07-11T15:51:18.766Z,3.60
2023-07-11T15:53:46.170Z,3.75
2023-07-11T15:56:15.383Z,3.38
2023-07-11T15:58:42.812Z,3.90
2023-07-11T16:01:10.030Z,3.65
2023-07-11T16:03:37.347Z,4.32
2023-07-11T16:06:11.632Z,3.60
2023-07-11T16:08:38.927Z,3.83
2023-07-11T16:11:07.882Z,3.88
2023-07-11T16:13:35.283Z,4.07
2023-07-11T16:16:03.000Z,4.20
2023-07-11T16:18:32.612Z,4.45
2023-07-11T16:21:00.582Z,3.05
2023-07-11T16:23:28.487Z,3.10
2023-07-11T16:25:56.453Z,4.15
2023-07-11T16:28:33.178Z,3.63
2023-07-11T16:31:06.612Z,4.43
2023-07-11T16:33:34.685Z,3.80
2023-07-11T16:36:01.894Z,3.40
2023-07-11T16:38:33.785Z,3.40
2023-07-11T16:41:02.021Z,2.83
2023-07-11T16:43:31.051Z,3.60
2023-07-11T16:45:59.529Z,4.20
2023-07-11T16:48:33.498Z,4.05
2023-07-11T16:51:04.729Z,3.90
2023-07-11T16:53:33.530Z,4.47
2023-07-11T16:56:02.206Z,4.60
2023-07-11T16:58:41.782Z,3.90
2023-07-11T17:01:21.840Z,3.63
2023-07-11T17:03:49.262Z,2.85
2023-07-11T17:06:31.465Z,3.00
2023-07-11T17:09:01.181Z,3.00
2023-07-11T17:11:28.821Z,2.78
2023-07-11T17:13:55.955Z,3.00
2023-07-11T17:16:29.810Z,3.05
2023-07-11T17:18:59.369Z,3.30
2023-07-11T17:21:26.516Z,3.05
2023-07-11T17:23:53.726Z,2.90
2023-07-11T17:26:21.359Z,3.30
2023-07-11T17:28:48.484Z,2.88
2023-07-11T17:31:15.993Z,2.63
2023-07-11T17:33:43.454Z,2.60
2023-07-11T17:36:14.831Z,2.80
2023-07-11T17:38:42.791Z,2.80
2023-07-11T17:41:10.347Z,2.35
2023-07-11T17:43:39.380Z,2.55
2023-07-11T17:48:42.943Z,2.28
2023-07-11T17:51:14.003Z,2.40
2023-07-11T17:53:41.649Z,2.70
2023-07-11T17:56:13.212Z,2.55
2023-07-11T17:58:42.943Z,2.60
2023-07-11T18:01:19.523Z,2.67
2023-07-11T18:03:49.054Z,2.70
2023-07-11T18:06:23.373Z,2.30
2023-07-11T18:08:51.572Z,2.35
2023-07-11T18:11:18.699Z,2.83
2023-07-11T18:13:46.816Z,2.20
2023-07-11T18:16:29.542Z,2.40
2023-07-11T18:18:57.299Z,2.53
2023-07-11T18:21:24.526Z,2.72
2023-07-11T18:23:51.867Z,2.35
2023-07-11T18:26:21.813Z,2.70
2023-07-11T18:28:49.434Z,2.45
2023-07-11T18:31:21.773Z,2.47
2023-07-11T18:33:51.507Z,2.55
2023-07-11T18:36:26.903Z,2.75
2023-07-11T18:38:55.120Z,2.80
2023-07-11T18:41:22.252Z,2.63
2023-07-11T18:43:49.453Z,2.50
2023-07-11T18:46:18.687Z,2.55
2023-07-11T18:48:46.330Z,2.58
2023-07-11T18:51:16.224Z,2.67
2023-07-11T18:53:44.364Z,2.38
2023-07-11T18:56:21.521Z,2.33
2023-07-11T18:58:48.811Z,2.30
2023-07-11T19:01:19.025Z,2.50
2023-07-11T19:03:46.197Z,2.60
2023-07-11T19:06:17.632Z,2.20
2023-07-11T19:08:48.247Z,3.20
2023-07-11T19:11:18.397Z,2.55
2023-07-11T19:13:45.747Z,2.72
2023-07-11T19:16:25.840Z,2.35
2023-07-11T19:18:53.239Z,2.50
2023-07-11T19:21:20.426Z,2.38
2023-07-11T19:23:47.643Z,2.80
2023-07-11T19:26:18.046Z,2.83
2023-07-11T19:28:47.723Z,2.08
2023-07-11T19:31:16.628Z,2.30
2023-07-11T19:33:43.895Z,2.60
2023-07-11T19:36:23.064Z,2.63
2023-07-11T19:38:50.214Z,2.30
2023-07-11T19:41:17.962Z,2.67
2023-07-11T19:43:47.323Z,2.58
2023-07-11T19:46:19.355Z,2.67
2023-07-11T19:48:46.681Z,2.60
2023-07-11T19:51:14.457Z,2.28
2023-07-11T19:53:42.218Z,2.45
2023-07-11T19:56:29.112Z,2.70
2023-07-11T19:59:02.811Z,2.63
2023-07-11T20:01:31.568Z,2.80
2023-07-11T20:03:58.763Z,2.92
2023-07-11T20:06:25.905Z,2.92
2023-07-11T20:08:54.067Z,2.58
2023-07-11T20:11:21.279Z,3.22
2023-07-11T20:13:48.375Z,2.83
2023-07-11T20:16:25.017Z,2.42
2023-07-11T20:18:52.839Z,2.70
2023-07-11T20:21:22.903Z,2.55
2023-07-11T20:23:53.876Z,3.08
2023-07-11T20:26:29.593Z,2.65
2023-07-11T20:28:58.445Z,2.70
2023-07-11T20:31:32.212Z,2.97
2023-07-11T20:33:59.420Z,2.38
2023-07-11T20:36:33.900Z,2.83
2023-07-11T20:39:01.272Z,2.50
2023-07-11T20:41:28.444Z,2.70
2023-07-11T20:44:00.685Z,2.53
2023-07-11T20:46:29.441Z,2.83
2023-07-11T20:49:00.572Z,2.50
2023-07-11T20:51:27.782Z,2.50
2023-07-11T20:53:55.337Z,2.30
2023-07-11T20:56:23.568Z,2.90
2023-07-11T20:58:55.958Z,2.30
2023-07-11T21:01:24.808Z,2.72
2023-07-11T21:03:55.284Z,2.30
2023-07-11T21:06:39.970Z,2.33
2023-07-11T21:09:16.114Z,2.60
2023-07-11T21:11:47.551Z,2.35
2023-07-11T21:14:14.786Z,2.13
2023-07-11T21:16:41.931Z,2.38
2023-07-11T21:19:24.100Z,2.20
2023-07-11T21:21:53.595Z,2.33
2023-07-11T21:24:20.716Z,2.20
2023-07-11T21:26:47.898Z,2.20
2023-07-11T21:29:15.521Z,2.17
2023-07-11T21:31:43.074Z,2.30
2023-07-11T21:34:10.642Z,2.20
2023-07-11T21:36:37.900Z,2.42
2023-07-11T21:39:07.037Z,2.35
2023-07-11T21:41:35.785Z,2.00
2023-07-11T21:44:02.864Z,2.35
2023-07-11T21:46:34.391Z,2.55
2023-07-11T21:49:02.359Z,2.00
2023-07-11T21:51:32.227Z,2.63
2023-07-11T21:54:04.137Z,2.28
2023-07-11T21:56:31.207Z,2.25
2023-07-11T21:59:01.796Z,2.10
2023-07-11T22:01:30.242Z,2.38
2023-07-11T22:03:57.473Z,2.40
2023-07-11T22:06:30.822Z,2.72
2023-07-11T22:09:00.701Z,2.10
2023-07-11T22:11:27.968Z,2.10
2023-07-11T22:13:55.061Z,2.22
2023-07-11T22:16:29.821Z,2.60
2023-07-11T22:18:57.323Z,2.10
2023-07-11T22:21:26.687Z,2.30
2023-07-11T22:23:54.462Z,2.33
2023-07-11T22:26:31.161Z,2.97
2023-07-11T22:28:59.364Z,2.40
2023-07-11T22:31:27.103Z,2.10
2023-07-11T22:33:54.423Z,2.10
2023-07-11T22:36:21.492Z,2.30
2023-07-11T22:38:51.561Z,2.30
2023-07-11T22:41:18.669Z,2.15
2023-07-11T22:43:45.899Z,2.40
2023-07-11T22:46:21.317Z,2.50
2023-07-11T22:48:50.072Z,2.30
2023-07-11T22:51:19.010Z,2.40
2023-07-11T22:53:47.922Z,2.40
2023-07-11T22:56:19.619Z,2.40
2023-07-11T22:58:46.902Z,2.20
2023-07-11T23:01:17.417Z,2.53
2023-07-11T23:03:44.709Z,2.50
2023-07-11T23:06:28.005Z,2.20
2023-07-11T23:08:57.008Z,2.47
2023-07-11T23:11:25.784Z,2.53
2023-07-11T23:13:53.028Z,2.65
2023-07-11T23:16:29.240Z,2.50
2023-07-11T23:19:04.790Z,2.50
2023-07-11T23:21:33.919Z,2.45
2023-07-11T23:24:01.772Z,2.55
2023-07-11T23:26:29.832Z,2.30
2023-07-11T23:28:57.257Z,2.25
2023-07-11T23:31:25.486Z,2.63
2023-07-11T23:33:52.866Z,2.42
2023-07-11T23:36:24.682Z,2.40
2023-07-11T23:38:55.424Z,2.50
2023-07-11T23:41:24.370Z,2.67
2023-07-11T23:43:53.211Z,2.25
2023-07-11T23:46:32.687Z,2.80
2023-07-11T23:49:00.488Z,2.40
2023-07-11T23:51:29.954Z,2.70
2023-07-11T23:53:57.534Z,3.08
2023-07-11T23:56:29.174Z,2.50
2023-07-11T23:58:57.733Z,2.10
